Time;durP1;ratioP1;P1;durP2;ratioP2;P2;SDS_P1;SDS_P2;PMS_P1;PMS_P2;Temp;Humidity;BMP_temperature;BMP_pressure;BME280_temperature;BME280_humidity;BME280_pressure;Samples;Min_cycle;Max_cycle;Signal;HPM_P1;HPM_P2
2022/09/30 00:02:19;;;;;;;;;;;20.80;49.10;;;;;;5090240;28;19964;-61
2022/09/30 00:04:45;;;;;;;;;;;20.80;49.10;;;;;;5089091;28;20370;-60
2022/09/30 00:07:12;;;;;;;;;;;20.80;49.10;;;;;;5074516;28;19927;-61
2022/09/30 00:09:39;;;;;;;;;;;20.80;49.10;;;;;;5088816;28;19921;-60
2022/09/30 00:12:05;;;;;;;;;;;20.80;49.10;;;;;;5074987;28;19998;-61
2022/09/30 00:14:32;;;;;;;;;;;20.80;49.10;;;;;;5073519;28;19966;-60
2022/09/30 00:17:00;;;;;;;;;;;20.80;49.10;;;;;;5074689;28;20023;-60
2022/09/30 00:19:27;;;;;;;;;;;20.80;49.10;;;;;;5073098;28;19952;-61
2022/09/30 00:21:53;;;;;;;;;;;20.80;49.10;;;;;;5088740;28;20006;-61
2022/09/30 00:24:23;;;;;;;;;;;20.80;49.10;;;;;;5074606;28;19989;-61
2022/09/30 00:26:50;;;;;;;;;;;20.80;49.10;;;;;;5090389;28;19959;-60
2022/09/30 00:29:17;;;;;;;;;;;20.80;49.10;;;;;;5090163;28;19920;-61
2022/09/30 00:31:45;;;;;;;;;;;20.80;49.10;;;;;;5088797;28;20015;-60
2022/09/30 00:34:17;;;;;;;;;;;20.80;49.10;;;;;;5073205;28;19974;-60
2022/09/30 00:36:45;;;;;;;;;;;20.80;49.10;;;;;;5074957;28;19960;-61
2022/09/30 00:39:13;;;;;;;;;;;20.80;49.10;;;;;;5072476;28;19943;-61
2022/09/30 00:41:40;;;;;;;;;;;20.80;49.10;;;;;;5089935;28;19943;-61
2022/09/30 00:44:34;;;;;;;;;;;20.80;49.10;;;;;;5088200;28;19966;-61
2022/09/30 00:47:00;;;;;;;;;;;20.80;49.10;;;;;;5072568;28;19920;-61
2022/09/30 00:49:29;;;;;;;;;;;20.80;49.10;;;;;;5088720;28;19956;-61
2022/09/30 00:51:55;;;;;;;;;;;20.80;49.10;;;;;;5069691;28;19980;-61
2022/09/30 00:54:23;;;;;;;;;;;20.80;49.10;;;;;;5073558;28;19924;-61
2022/09/30 00:56:50;;;;;;;;;;;20.80;49.10;;;;;;5090045;28;19921;-61
2022/09/30 00:59:18;;;;;;;;;;;20.80;49.20;;;;;;5088077;28;19927;-61
2022/09/30 01:01:44;;;;;;;;;;;20.80;49.10;;;;;;5073494;28;19920;-61
2022/09/30 01:04:11;;;;;;;;;;;20.80;49.10;;;;;;5071989;28;20324;-61
2022/09/30 01:06:39;;;;;;;;;;;20.80;49.10;;;;;;5090368;28;19981;-61
2022/09/30 01:09:06;;;;;;;;;;;20.80;49.10;;;;;;5072171;28;20011;-61
2022/09/30 01:11:33;;;;;;;;;;;20.80;49.10;;;;;;5072835;28;19921;-61
2022/09/30 01:14:00;;;;;;;;;;;20.80;49.10;;;;;;5072429;28;20405;-61
2022/09/30 01:16:33;;;;;;;;;;;20.80;49.10;;;;;;5090148;28;19956;-61
2022/09/30 01:19:04;;;;;;;;;;;20.80;49.20;;;;;;5089372;28;20312;-61
2022/09/30 01:21:48;;;;;;;;;;;20.80;49.10;;;;;;5087436;28;19920;-61
2022/09/30 01:24:36;;;;;;;;;;;20.80;49.10;;;;;;5090413;28;19924;-61
2022/09/30 01:27:33;;;;;;;;;;;20.80;49.20;;;;;;5072037;28;20361;-60
2022/09/30 01:30:17;;;;;;;;;;;20.80;49.20;;;;;;5033176;28;19925;-61
2022/09/30 01:32:56;;;;;;;;;;;20.80;49.20;;;;;;5067585;28;19920;-60
2022/09/30 01:35:27;;;;;;;;;;;20.80;49.10;;;;;;5089464;28;19970;-61
2022/09/30 01:37:55;;;;;;;;;;;20.80;49.20;;;;;;5089896;28;19927;-61
2022/09/30 01:40:24;;;;;;;;;;;20.80;49.20;;;;;;5089830;28;19920;-61
2022/09/30 01:42:53;;;;;;;;;;;20.80;49.10;;;;;;5072387;28;19970;-61
2022/09/30 01:45:20;;;;;;;;;;;20.80;49.20;;;;;;5089325;28;19924;-61
2022/09/30 01:47:47;;;;;;;;;;;20.80;49.10;;;;;;5089304;28;20011;-61
2022/09/30 01:50:16;;;;;;;;;;;20.80;49.20;;;;;;5072880;28;20014;-61
2022/09/30 01:52:44;;;;;;;;;;;20.80;49.20;;;;;;5073877;28;19968;-61
2022/09/30 01:55:12;;;;;;;;;;;20.80;49.20;;;;;;5089049;28;19928;-61
2022/09/30 01:57:40;;;;;;;;;;;20.80;49.10;;;;;;5088840;28;20011;-61
2022/09/30 02:00:07;;;;;;;;;;;20.80;49.20;;;;;;5086980;28;19969;-60
2022/09/30 02:02:35;;;;;;;;;;;20.80;49.20;;;;;;5073520;28;19921;-61
2022/09/30 02:05:02;;;;;;;;;;;20.80;49.20;;;;;;5087079;28;19963;-60
2022/09/30 02:07:30;;;;;;;;;;;20.80;49.20;;;;;;5089635;28;19920;-60
2022/09/30 02:09:58;;;;;;;;;;;20.80;49.20;;;;;;5069912;28;19921;-61
2022/09/30 02:12:26;;;;;;;;;;;20.80;49.20;;;;;;5073409;28;19920;-61
2022/09/30 02:14:53;;;;;;;;;;;20.80;49.10;;;;;;5076810;28;19944;-61
2022/09/30 02:17:20;;;;;;;;;;;20.80;49.20;;;;;;5053378;28;19964;-61
2022/09/30 02:19:47;;;;;;;;;;;20.80;49.20;;;;;;5053429;28;20374;-61
2022/09/30 02:22:15;;;;;;;;;;;20.80;49.10;;;;;;5068666;28;19921;-61
2022/09/30 02:24:44;;;;;;;;;;;20.80;49.20;;;;;;5070528;28;19927;-61
2022/09/30 02:27:13;;;;;;;;;;;20.80;49.20;;;;;;5077011;28;19928;-61
2022/09/30 02:29:41;;;;;;;;;;;20.80;49.20;;;;;;5093105;28;19943;-61
2022/09/30 02:32:09;;;;;;;;;;;20.80;49.10;;;;;;5093215;28;19924;-61
2022/09/30 02:34:36;;;;;;;;;;;20.80;49.10;;;;;;5092844;28;19927;-61
2022/09/30 02:37:03;;;;;;;;;;;20.80;49.20;;;;;;5092622;28;19920;-61
2022/09/30 02:39:32;;;;;;;;;;;20.80;49.20;;;;;;5092051;28;19921;-61
2022/09/30 02:42:09;;;;;;;;;;;20.80;49.20;;;;;;5092773;28;19920;-61
2022/09/30 02:44:35;;;;;;;;;;;20.80;49.20;;;;;;5092432;28;19929;-61
2022/09/30 02:47:04;;;;;;;;;;;20.80;49.20;;;;;;5092094;28;20026;-61
2022/09/30 02:49:31;;;;;;;;;;;20.80;49.20;;;;;;5091854;28;19925;-61
2022/09/30 02:52:07;;;;;;;;;;;20.80;49.10;;;;;;5092028;28;19942;-61
2022/09/30 02:54:34;;;;;;;;;;;20.80;49.10;;;;;;5076122;28;20277;-61
2022/09/30 02:57:05;;;;;;;;;;;20.80;49.10;;;;;;5076425;28;19924;-61
2022/09/30 02:59:32;;;;;;;;;;;20.80;49.10;;;;;;5091539;28;19943;-61
2022/09/30 03:01:59;;;;;;;;;;;20.80;49.10;;;;;;5092435;28;19920;-61
2022/09/30 03:04:27;;;;;;;;;;;20.80;49.10;;;;;;5091455;28;19920;-61
2022/09/30 03:06:54;;;;;;;;;;;20.80;49.10;;;;;;5091956;28;19920;-61
2022/09/30 03:09:24;;;;;;;;;;;20.80;49.10;;;;;;5091273;28;20018;-61
2022/09/30 03:11:51;;;;;;;;;;;20.80;49.10;;;;;;5092356;28;19970;-61
2022/09/30 03:14:22;;;;;;;;;;;20.80;49.10;;;;;;5076220;28;19921;-61
2022/09/30 03:16:53;;;;;;;;;;;20.80;49.10;;;;;;5090027;28;20011;-61
2022/09/30 03:19:24;;;;;;;;;;;20.80;49.10;;;;;;5075784;28;19921;-61
2022/09/30 03:21:55;;;;;;;;;;;20.80;49.10;;;;;;5076062;28;19940;-61
2022/09/30 03:24:29;;;;;;;;;;;20.80;49.10;;;;;;5092349;28;19966;-61
2022/09/30 03:26:58;;;;;;;;;;;20.80;49.10;;;;;;5091813;28;19967;-61
2022/09/30 03:29:26;;;;;;;;;;;20.80;49.10;;;;;;5074169;28;19924;-61
2022/09/30 03:31:57;;;;;;;;;;;20.80;49.10;;;;;;5088313;28;19974;-61
2022/09/30 03:34:25;;;;;;;;;;;20.80;49.10;;;;;;5073202;28;20389;-61
2022/09/30 03:36:54;;;;;;;;;;;20.80;49.10;;;;;;5091466;28;19928;-61
2022/09/30 03:39:22;;;;;;;;;;;20.80;49.20;;;;;;5091048;28;20273;-61
2022/09/30 03:41:51;;;;;;;;;;;20.80;49.10;;;;;;5091071;28;19927;-61
2022/09/30 03:44:19;;;;;;;;;;;20.80;49.10;;;;;;5091133;28;19943;-61
2022/09/30 03:46:48;;;;;;;;;;;20.80;49.10;;;;;;5075442;28;19985;-61
2022/09/30 03:49:16;;;;;;;;;;;20.80;49.20;;;;;;5073853;28;19991;-61
2022/09/30 03:51:43;;;;;;;;;;;20.80;49.10;;;;;;5091944;28;19944;-61
2022/09/30 03:54:10;;;;;;;;;;;20.80;49.20;;;;;;5090522;28;19920;-61
2022/09/30 03:56:42;;;;;;;;;;;20.80;49.10;;;;;;5090809;28;19970;-61
2022/09/30 03:59:12;;;;;;;;;;;20.80;49.10;;;;;;5090819;28;20286;-61
2022/09/30 04:01:39;;;;;;;;;;;20.80;49.10;;;;;;5091554;28;20023;-61
2022/09/30 04:04:07;;;;;;;;;;;20.80;49.10;;;;;;5075325;28;19924;-61
2022/09/30 04:06:34;;;;;;;;;;;20.80;49.10;;;;;;5091746;28;20025;-61
2022/09/30 04:09:01;;;;;;;;;;;20.80;49.10;;;;;;5074381;28;19921;-61
2022/09/30 04:11:27;;;;;;;;;;;20.80;49.10;;;;;;5090467;28;19990;-61
2022/09/30 04:13:54;;;;;;;;;;;20.80;49.10;;;;;;5091105;28;20376;-61
2022/09/30 04:16:21;;;;;;;;;;;20.80;49.10;;;;;;5091251;28;19925;-61
2022/09/30 04:18:47;;;;;;;;;;;20.80;49.10;;;;;;5090525;28;19921;-61
2022/09/30 04:21:16;;;;;;;;;;;20.80;49.20;;;;;;5074498;28;19920;-61
2022/09/30 04:23:42;;;;;;;;;;;20.80;49.10;;;;;;5090411;28;19920;-61
2022/09/30 04:26:10;;;;;;;;;;;20.80;49.10;;;;;;5091058;28;19920;-61
2022/09/30 04:28:37;;;;;;;;;;;20.80;49.10;;;;;;5090850;28;20024;-61
2022/09/30 04:31:05;;;;;;;;;;;20.80;49.10;;;;;;5088751;28;19920;-61
2022/09/30 04:33:31;;;;;;;;;;;20.80;49.10;;;;;;5090717;28;19986;-61
2022/09/30 04:35:58;;;;;;;;;;;20.80;49.10;;;;;;5090473;28;20011;-61
2022/09/30 04:38:26;;;;;;;;;;;20.80;49.10;;;;;;5090258;28;19928;-61
2022/09/30 04:40:54;;;;;;;;;;;20.80;49.10;;;;;;5090571;28;20265;-61
2022/09/30 04:43:22;;;;;;;;;;;20.80;49.10;;;;;;5090423;28;19928;-61
2022/09/30 04:45:49;;;;;;;;;;;20.80;49.10;;;;;;5090776;28;20018;-61
2022/09/30 04:48:15;;;;;;;;;;;20.80;49.10;;;;;;5089148;28;20011;-61
2022/09/30 04:50:42;;;;;;;;;;;20.80;49.10;;;;;;5089904;28;19924;-61
2022/09/30 04:53:09;;;;;;;;;;;20.80;49.10;;;;;;5089824;28;19925;-62
2022/09/30 04:55:37;;;;;;;;;;;20.80;49.10;;;;;;5074430;28;19928;-62
2022/09/30 04:58:04;;;;;;;;;;;20.80;49.10;;;;;;5074631;28;19943;-61
2022/09/30 05:00:30;;;;;;;;;;;20.80;49.10;;;;;;5089844;28;19920;-62
2022/09/30 05:02:57;;;;;;;;;;;20.80;49.10;;;;;;5089838;28;19940;-62
2022/09/30 05:05:24;;;;;;;;;;;20.80;49.10;;;;;;5074027;28;19920;-62
2022/09/30 05:07:52;;;;;;;;;;;20.70;49.00;;;;;;5073127;28;21564;-61
2022/09/30 05:10:20;;;;;;;;;;;20.80;49.10;;;;;;5088108;28;19920;-60
2022/09/30 05:12:48;;;;;;;;;;;20.80;49.10;;;;;;5089877;28;20310;-60
2022/09/30 05:15:15;;;;;;;;;;;20.80;49.10;;;;;;5071000;28;19966;-61
2022/09/30 05:17:42;;;;;;;;;;;20.80;49.10;;;;;;5074011;28;19931;-61
2022/09/30 05:20:10;;;;;;;;;;;20.80;49.10;;;;;;5089783;28;19920;-61
2022/09/30 05:22:37;;;;;;;;;;;20.80;49.10;;;;;;5089956;28;19921;-61
2022/09/30 05:25:04;;;;;;;;;;;20.80;49.10;;;;;;5089662;28;19921;-61
2022/09/30 05:27:30;;;;;;;;;;;20.80;49.10;;;;;;5089434;28;19920;-61
2022/09/30 05:29:58;;;;;;;;;;;20.80;49.00;;;;;;5073942;28;19920;-61
2022/09/30 05:32:25;;;;;;;;;;;20.80;49.10;;;;;;5090077;28;19970;-61
2022/09/30 05:34:54;;;;;;;;;;;20.80;49.10;;;;;;5090167;28;19947;-61
2022/09/30 05:37:20;;;;;;;;;;;20.70;49.00;;;;;;5074522;28;19920;-61
2022/09/30 05:39:47;;;;;;;;;;;20.80;49.10;;;;;;5087794;28;19946;-61
2022/09/30 05:42:14;;;;;;;;;;;20.80;49.10;;;;;;5089587;28;19921;-61
2022/09/30 05:44:40;;;;;;;;;;;20.80;49.00;;;;;;5089598;28;19927;-61
2022/09/30 05:47:10;;;;;;;;;;;20.80;49.00;;;;;;5073770;28;19921;-61
2022/09/30 05:49:37;;;;;;;;;;;20.80;49.00;;;;;;5090112;28;19921;-61
2022/09/30 05:52:04;;;;;;;;;;;20.80;49.10;;;;;;5073345;28;19920;-61
2022/09/30 05:54:30;;;;;;;;;;;20.70;49.00;;;;;;5087872;28;19928;-61
2022/09/30 05:56:57;;;;;;;;;;;20.80;49.10;;;;;;5087740;28;19964;-61
2022/09/30 05:59:25;;;;;;;;;;;20.80;49.00;;;;;;5074861;28;20239;-61
2022/09/30 06:01:52;;;;;;;;;;;20.80;49.10;;;;;;5077209;28;19920;-61
2022/09/30 06:04:21;;;;;;;;;;;20.80;49.00;;;;;;5075204;28;19921;-61
2022/09/30 06:06:48;;;;;;;;;;;20.80;49.00;;;;;;5093922;28;20015;-61
2022/09/30 06:09:15;;;;;;;;;;;20.80;49.00;;;;;;5091301;28;19970;-61
2022/09/30 06:11:41;;;;;;;;;;;20.80;49.00;;;;;;5092922;28;20423;-61
2022/09/30 06:14:08;;;;;;;;;;;20.80;49.00;;;;;;5092643;28;19977;-61
2022/09/30 06:16:35;;;;;;;;;;;20.80;49.00;;;;;;5093136;28;19920;-61
2022/09/30 06:19:01;;;;;;;;;;;20.80;49.00;;;;;;5075625;28;19966;-61
2022/09/30 06:21:30;;;;;;;;;;;20.80;49.00;;;;;;5092348;28;19969;-61
2022/09/30 06:23:56;;;;;;;;;;;20.80;49.00;;;;;;5091219;28;19925;-61
2022/09/30 06:26:23;;;;;;;;;;;20.80;49.00;;;;;;5093159;28;19921;-61
2022/09/30 06:28:50;;;;;;;;;;;20.80;49.00;;;;;;5092670;28;19924;-61
2022/09/30 06:31:17;;;;;;;;;;;20.80;49.00;;;;;;5076227;28;19946;-61
2022/09/30 06:33:45;;;;;;;;;;;20.80;49.00;;;;;;5092588;28;19924;-61
2022/09/30 06:36:12;;;;;;;;;;;20.80;49.00;;;;;;5092525;28;19942;-61
2022/09/30 06:38:40;;;;;;;;;;;20.80;49.00;;;;;;5076583;28;19920;-61
2022/09/30 06:41:07;;;;;;;;;;;20.80;49.00;;;;;;5092348;28;19974;-61
2022/09/30 06:43:33;;;;;;;;;;;20.80;49.00;;;;;;5092384;28;19973;-61
2022/09/30 06:46:00;;;;;;;;;;;20.80;49.00;;;;;;5083279;28;20427;-72
2022/09/30 06:48:28;;;;;;;;;;;20.80;49.00;;;;;;5089690;28;19920;-72
2022/09/30 06:50:57;;;;;;;;;;;20.80;49.00;;;;;;5093107;28;19920;-72
2022/09/30 06:53:24;;;;;;;;;;;20.80;48.90;;;;;;5077058;28;19920;-72
2022/09/30 06:55:55;;;;;;;;;;;20.80;48.70;;;;;;5073765;28;20030;-72
2022/09/30 06:58:23;;;;;;;;;;;20.80;48.60;;;;;;5093121;28;19924;-73
2022/09/30 07:00:56;;;;;;;;;;;20.80;48.50;;;;;;5076557;28;19920;-78
2022/09/30 07:03:24;;;;;;;;;;;20.70;48.30;;;;;;5076827;28;20370;-74
2022/09/30 07:05:56;;;;;;;;;;;20.80;48.40;;;;;;5091904;28;19970;-74
2022/09/30 07:08:24;;;;;;;;;;;20.70;48.30;;;;;;5093457;28;19928;-76
2022/09/30 07:10:51;;;;;;;;;;;20.80;48.40;;;;;;5092752;28;19920;-75
2022/09/30 07:13:19;;;;;;;;;;;20.80;48.40;;;;;;5075849;28;19921;-71
2022/09/30 07:15:46;;;;;;;;;;;20.70;48.20;;;;;;5091206;28;19920;-71
2022/09/30 07:18:13;;;;;;;;;;;20.70;47.70;;;;;;5077068;28;19946;-73
2022/09/30 07:20:40;;;;;;;;;;;20.70;47.60;;;;;;5090614;28;19960;-73
2022/09/30 07:23:07;;;;;;;;;;;20.60;47.50;;;;;;5076198;28;20014;-70
2022/09/30 07:25:33;;;;;;;;;;;20.60;47.60;;;;;;5072854;28;20019;-74
2022/09/30 07:28:01;;;;;;;;;;;20.60;47.70;;;;;;5093940;28;19920;-72
2022/09/30 07:30:30;;;;;;;;;;;20.70;47.80;;;;;;5091544;28;19920;-74
2022/09/30 07:32:56;;;;;;;;;;;20.70;47.80;;;;;;5092185;28;19920;-72
2022/09/30 07:35:23;;;;;;;;;;;20.70;47.90;;;;;;5076116;28;19924;-72
2022/09/30 07:37:50;;;;;;;;;;;20.70;47.90;;;;;;5091918;28;19927;-73
2022/09/30 07:40:18;;;;;;;;;;;20.70;47.90;;;;;;5073644;28;19921;-72
2022/09/30 07:42:45;;;;;;;;;;;20.60;47.90;;;;;;5076345;28;19927;-73
2022/09/30 07:45:18;;;;;;;;;;;20.70;47.90;;;;;;5089816;28;20002;-70
2022/09/30 07:47:46;;;;;;;;;;;20.70;47.90;;;;;;5091795;28;19924;-73
2022/09/30 07:50:14;;;;;;;;;;;20.70;48.00;;;;;;5088351;28;20419;-74
2022/09/30 07:52:41;;;;;;;;;;;20.70;48.00;;;;;;5076160;28;19927;-73
2022/09/30 07:55:08;;;;;;;;;;;20.70;48.00;;;;;;5090895;28;20034;-72
2022/09/30 07:57:34;;;;;;;;;;;20.70;48.00;;;;;;5073858;28;19927;-71
2022/09/30 08:00:01;;;;;;;;;;;20.70;48.00;;;;;;5090179;28;19943;-73
2022/09/30 08:02:28;;;;;;;;;;;20.70;48.00;;;;;;5089761;28;19964;-71
2022/09/30 08:04:56;;;;;;;;;;;20.60;48.00;;;;;;5089976;28;19927;-73
2022/09/30 08:07:23;;;;;;;;;;;20.70;48.10;;;;;;5074701;28;19966;-70
2022/09/30 08:09:49;;;;;;;;;;;20.60;48.00;;;;;;5088849;28;20057;-71
2022/09/30 08:12:16;;;;;;;;;;;20.70;48.10;;;;;;5090854;28;20023;-71
2022/09/30 08:14:43;;;;;;;;;;;20.70;48.10;;;;;;5086680;28;19982;-76
2022/09/30 08:17:10;;;;;;;;;;;20.70;48.10;;;;;;5076442;28;20361;-71
2022/09/30 08:19:37;;;;;;;;;;;20.70;48.10;;;;;;5073501;28;19992;-71
2022/09/30 08:22:05;;;;;;;;;;;20.70;48.10;;;;;;5069715;28;19963;-71
2022/09/30 08:24:31;;;;;;;;;;;20.70;48.10;;;;;;5085239;28;19989;-73
2022/09/30 08:26:58;;;;;;;;;;;20.70;48.10;;;;;;5088379;28;19920;-71
2022/09/30 08:29:25;;;;;;;;;;;20.70;48.10;;;;;;5071445;28;19920;-77
2022/09/30 08:31:52;;;;;;;;;;;20.70;48.10;;;;;;5073806;28;19921;-74
2022/09/30 08:34:20;;;;;;;;;;;20.70;48.10;;;;;;5073194;28;20005;-74
2022/09/30 08:36:47;;;;;;;;;;;20.70;48.10;;;;;;5090968;28;19921;-74
2022/09/30 08:39:15;;;;;;;;;;;20.70;48.10;;;;;;5090049;28;19924;-74
2022/09/30 08:41:48;;;;;;;;;;;20.70;48.10;;;;;;5073374;28;20008;-74
2022/09/30 08:44:20;;;;;;;;;;;20.70;48.10;;;;;;5072688;28;20281;-72
2022/09/30 08:46:48;;;;;;;;;;;20.70;48.00;;;;;;5074692;28;19924;-67
2022/09/30 08:49:20;;;;;;;;;;;20.70;48.00;;;;;;5073412;28;19920;-67
2022/09/30 08:51:47;;;;;;;;;;;20.70;48.00;;;;;;5090192;28;20419;-67
2022/09/30 08:54:15;;;;;;;;;;;20.70;48.00;;;;;;5089297;28;19924;-68
2022/09/30 08:56:42;;;;;;;;;;;20.70;48.00;;;;;;5090488;28;19921;-68
2022/09/30 08:59:10;;;;;;;;;;;20.70;48.00;;;;;;5089731;28;19963;-68
2022/09/30 09:01:38;;;;;;;;;;;20.70;48.00;;;;;;5090723;28;19927;-69
2022/09/30 09:04:05;;;;;;;;;;;20.70;48.00;;;;;;5090541;28;19927;-70
2022/09/30 09:06:34;;;;;;;;;;;20.70;48.00;;;;;;5090429;28;19967;-71
2022/09/30 09:09:03;;;;;;;;;;;20.70;48.10;;;;;;5088504;28;19921;-69
2022/09/30 09:11:36;;;;;;;;;;;20.70;48.00;;;;;;5088866;28;19920;-69
2022/09/30 09:14:03;;;;;;;;;;;20.70;48.10;;;;;;5072040;28;19928;-68
2022/09/30 09:16:31;;;;;;;;;;;20.70;48.10;;;;;;5074329;28;19921;-69
2022/09/30 09:18:58;;;;;;;;;;;20.70;48.10;;;;;;5074389;28;19920;-68
2022/09/30 09:21:29;;;;;;;;;;;20.70;48.10;;;;;;5071115;28;19927;-67
2022/09/30 09:23:56;;;;;;;;;;;20.70;48.20;;;;;;5089483;28;19968;-67
2022/09/30 09:26:22;;;;;;;;;;;20.70;48.20;;;;;;5087428;28;19925;-66
2022/09/30 09:28:56;;;;;;;;;;;20.70;48.20;;;;;;5071082;28;19952;-66
2022/09/30 09:31:22;;;;;;;;;;;20.70;48.20;;;;;;5087900;28;19964;-68
2022/09/30 09:33:49;;;;;;;;;;;20.70;48.20;;;;;;5089466;28;19927;-69
2022/09/30 09:36:23;;;;;;;;;;;20.70;48.20;;;;;;5076855;28;20269;-68
2022/09/30 09:38:57;;;;;;;;;;;20.80;48.30;;;;;;5077149;28;19964;-67
2022/09/30 09:41:26;;;;;;;;;;;20.80;48.30;;;;;;5094371;28;20011;-67
2022/09/30 09:43:57;;;;;;;;;;;20.80;48.30;;;;;;5091962;28;20019;-66
2022/09/30 09:46:25;;;;;;;;;;;20.70;48.30;;;;;;5093759;28;19920;-67
2022/09/30 09:48:56;;;;;;;;;;;20.80;48.30;;;;;;5076966;28;19924;-67
2022/09/30 09:51:24;;;;;;;;;;;20.70;48.30;;;;;;5091808;28;19968;-67
2022/09/30 09:53:52;;;;;;;;;;;20.70;48.30;;;;;;5076131;28;19956;-66
2022/09/30 09:56:19;;;;;;;;;;;20.80;48.30;;;;;;5093589;28;19921;-66
2022/09/30 09:59:05;;;;;;;;;;;20.70;48.30;;;;;;5091495;28;19924;-67
2022/09/30 10:01:33;;;;;;;;;;;20.80;48.40;;;;;;5077315;28;19921;-67
2022/09/30 10:04:08;;;;;;;;;;;20.80;48.40;;;;;;5093473;28;20320;-68
2022/09/30 10:06:42;;;;;;;;;;;20.70;48.30;;;;;;5093671;28;19967;-67
2022/09/30 10:09:09;;;;;;;;;;;20.70;48.30;;;;;;5074724;28;20015;-69
2022/09/30 10:11:35;;;;;;;;;;;20.80;48.40;;;;;;5077424;28;19979;-68
2022/09/30 10:14:02;;;;;;;;;;;20.80;48.40;;;;;;5074304;28;20011;-67
2022/09/30 10:16:30;;;;;;;;;;;20.80;48.40;;;;;;5092858;28;19920;-66
2022/09/30 10:19:00;;;;;;;;;;;20.80;48.40;;;;;;5076101;28;19920;-66
2022/09/30 10:21:27;;;;;;;;;;;20.80;49.00;;;;;;5076905;28;20027;-67
2022/09/30 10:23:54;;;;;;;;;;;20.80;48.40;;;;;;5093889;28;19921;-67
2022/09/30 10:26:21;;;;;;;;;;;20.80;48.40;;;;;;5090110;28;19920;-67
2022/09/30 10:28:48;;;;;;;;;;;20.80;48.40;;;;;;5093349;28;19924;-70
2022/09/30 10:31:16;;;;;;;;;;;20.80;48.40;;;;;;5091082;28;19956;-64
2022/09/30 10:33:43;;;;;;;;;;;20.80;48.40;;;;;;5092343;28;19920;-69
2022/09/30 10:36:13;;;;;;;;;;;20.80;48.40;;;;;;5076292;28;19971;-68
2022/09/30 10:38:47;;;;;;;;;;;20.80;48.40;;;;;;5077553;28;19921;-68
2022/09/30 10:41:14;;;;;;;;;;;20.80;48.50;;;;;;5093159;28;19970;-67
2022/09/30 10:43:42;;;;;;;;;;;20.80;48.50;;;;;;5076976;28;19974;-67
2022/09/30 10:46:09;;;;;;;;;;;20.80;48.50;;;;;;5091344;28;19997;-67
2022/09/30 10:48:36;;;;;;;;;;;20.80;48.50;;;;;;5092850;28;19924;-67
2022/09/30 10:51:02;;;;;;;;;;;20.80;48.50;;;;;;5091145;28;20301;-67
2022/09/30 10:53:31;;;;;;;;;;;20.90;48.60;;;;;;5075755;28;20019;-68
2022/09/30 10:55:59;;;;;;;;;;;20.90;48.60;;;;;;5092428;28;19967;-69
2022/09/30 10:58:29;;;;;;;;;;;20.80;48.50;;;;;;5076143;28;19925;-68
2022/09/30 11:00:57;;;;;;;;;;;20.80;48.50;;;;;;5075834;28;20024;-68
2022/09/30 11:03:25;;;;;;;;;;;20.80;48.50;;;;;;5092168;28;20028;-68
2022/09/30 11:05:51;;;;;;;;;;;20.90;48.60;;;;;;5073218;28;19977;-68
2022/09/30 11:08:19;;;;;;;;;;;20.80;48.40;;;;;;5092009;28;19920;-68
2022/09/30 11:10:48;;;;;;;;;;;20.90;48.50;;;;;;5092775;28;19924;-68
2022/09/30 11:13:16;;;;;;;;;;;20.80;48.50;;;;;;5091601;28;20415;-68
2022/09/30 11:15:57;;;;;;;;;;;20.80;48.40;;;;;;5090313;28;20281;-68
2022/09/30 11:18:25;;;;;;;;;;;20.90;48.50;;;;;;5074611;28;19921;-67
2022/09/30 11:20:53;;;;;;;;;;;20.80;48.40;;;;;;5091743;28;20019;-67
2022/09/30 11:23:20;;;;;;;;;;;20.90;48.50;;;;;;5092216;28;20014;-67
2022/09/30 11:25:49;;;;;;;;;;;20.80;48.40;;;;;;5091857;28;19983;-68
2022/09/30 11:28:21;;;;;;;;;;;20.90;48.50;;;;;;5091795;28;19924;-67
2022/09/30 11:30:50;;;;;;;;;;;20.90;48.50;;;;;;5092105;28;19921;-67
2022/09/30 11:33:34;;;;;;;;;;;20.90;48.50;;;;;;5075877;28;20012;-66
2022/09/30 11:36:03;;;;;;;;;;;20.80;48.40;;;;;;5075716;28;19975;-67
2022/09/30 11:38:34;;;;;;;;;;;20.90;48.50;;;;;;5091491;28;19920;-66
2022/09/30 11:41:03;;;;;;;;;;;20.80;48.40;;;;;;5074725;28;19920;-66
2022/09/30 11:43:32;;;;;;;;;;;20.90;48.50;;;;;;5090975;28;19932;-66
2022/09/30 11:46:09;;;;;;;;;;;20.90;48.50;;;;;;5092082;28;20012;-67
2022/09/30 11:48:40;;;;;;;;;;;20.90;48.50;;;;;;5075645;28;19920;-66
2022/09/30 11:51:10;;;;;;;;;;;20.90;48.50;;;;;;5086359;28;19978;-66
2022/09/30 11:53:40;;;;;;;;;;;20.90;48.50;;;;;;5089440;28;19921;-68
2022/09/30 11:56:11;;;;;;;;;;;20.90;48.60;;;;;;5086928;28;20054;-67
2022/09/30 11:58:39;;;;;;;;;;;20.90;48.50;;;;;;5075360;28;19947;-69
2022/09/30 12:01:11;;;;;;;;;;;20.90;48.50;;;;;;5090924;28;19920;-70
2022/09/30 12:03:38;;;;;;;;;;;20.90;48.50;;;;;;5090898;28;19925;-66
2022/09/30 12:06:10;;;;;;;;;;;20.90;48.50;;;;;;5091052;28;19926;-67
2022/09/30 12:08:38;;;;;;;;;;;20.90;48.50;;;;;;5091061;28;20035;-66
2022/09/30 12:11:07;;;;;;;;;;;20.90;48.50;;;;;;5091610;28;19924;-66
2022/09/30 12:13:36;;;;;;;;;;;20.90;48.50;;;;;;5091152;28;19920;-66
2022/09/30 12:16:03;;;;;;;;;;;20.90;48.50;;;;;;5087781;28;19921;-69
2022/09/30 12:18:31;;;;;;;;;;;20.90;48.50;;;;;;5073681;28;19920;-70
2022/09/30 12:20:58;;;;;;;;;;;20.90;48.50;;;;;;5068067;28;20297;-68
2022/09/30 12:23:27;;;;;;;;;;;20.90;48.50;;;;;;5070365;28;20015;-67
2022/09/30 12:25:55;;;;;;;;;;;21.00;48.60;;;;;;5083523;28;19931;-71
2022/09/30 12:31:32;;;;;;;;;;;21.00;48.60;;;;;;5039920;28;19959;-72
2022/09/30 12:34:02;;;;;;;;;;;20.90;48.50;;;;;;5073449;28;19978;-67
2022/09/30 12:36:44;;;;;;;;;;;21.00;48.60;;;;;;5085117;28;19932;-67
2022/09/30 12:39:18;;;;;;;;;;;20.90;48.50;;;;;;5066982;28;19927;-70
2022/09/30 12:41:48;;;;;;;;;;;21.00;48.60;;;;;;5084587;28;20011;-68
2022/09/30 12:44:39;;;;;;;;;;;21.00;48.60;;;;;;5076197;28;19995;-68
2022/09/30 12:47:11;;;;;;;;;;;20.90;48.50;;;;;;5065418;28;20337;-68
2022/09/30 12:49:38;;;;;;;;;;;20.90;48.50;;;;;;5068767;28;19932;-69
2022/09/30 12:52:06;;;;;;;;;;;20.90;48.50;;;;;;5068835;28;19920;-70
2022/09/30 12:54:33;;;;;;;;;;;21.00;48.50;;;;;;5065863;28;19933;-67
2022/09/30 12:57:02;;;;;;;;;;;21.00;48.50;;;;;;5083607;28;20018;-68
2022/09/30 12:59:29;;;;;;;;;;;21.00;48.50;;;;;;5068329;28;19954;-70
2022/09/30 13:01:56;;;;;;;;;;;21.00;48.50;;;;;;5060171;28;20250;-71
2022/09/30 13:04:32;;;;;;;;;;;21.00;48.50;;;;;;5082391;28;19920;-66
2022/09/30 13:07:22;;;;;;;;;;;21.00;48.50;;;;;;5066797;28;19952;-69
2022/09/30 13:10:00;;;;;;;;;;;21.00;48.50;;;;;;5071701;28;20004;-70
2022/09/30 13:12:27;;;;;;;;;;;21.00;48.50;;;;;;5082311;28;19932;-68
2022/09/30 13:15:21;;;;;;;;;;;21.00;48.50;;;;;;5065680;28;19921;-68
2022/09/30 13:17:48;;;;;;;;;;;21.00;48.50;;;;;;5055884;28;19930;-69
2022/09/30 13:20:33;;;;;;;;;;;21.00;48.50;;;;;;5083874;28;20003;-69
2022/09/30 13:23:01;;;;;;;;;;;21.00;48.40;;;;;;5076423;28;19933;-69
2022/09/30 13:25:31;;;;;;;;;;;21.00;48.40;;;;;;5078243;28;20023;-68
2022/09/30 13:28:17;;;;;;;;;;;21.00;48.40;;;;;;5059529;28;19974;-70
2022/09/30 13:30:44;;;;;;;;;;;21.00;49.00;;;;;;5080260;28;19921;-74
2022/09/30 13:33:29;;;;;;;;;;;21.00;48.40;;;;;;5063650;28;19974;-70
2022/09/30 13:35:57;;;;;;;;;;;21.00;48.40;;;;;;5055202;28;19921;-69
2022/09/30 13:38:33;;;;;;;;;;;21.00;48.40;;;;;;5065131;28;20179;-73
2022/09/30 13:41:05;;;;;;;;;;;21.00;48.40;;;;;;5080553;28;19921;-70
2022/09/30 13:43:33;;;;;;;;;;;21.00;48.40;;;;;;5083845;28;20392;-70
2022/09/30 13:46:04;;;;;;;;;;;21.00;48.50;;;;;;5062343;28;19967;-70
2022/09/30 13:48:32;;;;;;;;;;;21.00;48.40;;;;;;5082962;28;20456;-70
2022/09/30 13:50:59;;;;;;;;;;;21.00;48.40;;;;;;5084681;28;19952;-69
2022/09/30 13:53:28;;;;;;;;;;;21.00;48.40;;;;;;5083907;28;19990;-68
2022/09/30 13:55:56;;;;;;;;;;;21.00;48.40;;;;;;5063484;28;20003;-66
2022/09/30 13:58:41;;;;;;;;;;;21.00;48.40;;;;;;5076424;28;20080;-68
2022/09/30 14:01:09;;;;;;;;;;;21.00;48.40;;;;;;5065635;28;19959;-69
2022/09/30 14:03:39;;;;;;;;;;;21.00;48.40;;;;;;5061618;28;19964;-68
2022/09/30 14:06:09;;;;;;;;;;;21.00;48.40;;;;;;5084400;28;19972;-72
2022/09/30 14:08:55;;;;;;;;;;;21.10;48.40;;;;;;5085169;28;19921;-68
2022/09/30 14:11:40;;;;;;;;;;;21.10;48.40;;;;;;5082780;28;19924;-70
2022/09/30 14:14:13;;;;;;;;;;;21.00;48.30;;;;;;5084046;28;20003;-70
2022/09/30 14:16:55;;;;;;;;;;;21.10;48.40;;;;;;5085755;28;20319;-68
2022/09/30 14:19:26;;;;;;;;;;;21.10;48.40;;;;;;5056628;28;19939;-70
2022/09/30 14:21:52;;;;;;;;;;;21.10;48.40;;;;;;5070231;28;19920;-68
2022/09/30 14:24:22;;;;;;;;;;;21.10;48.40;;;;;;5087886;28;19924;-68
2022/09/30 14:27:02;;;;;;;;;;;21.10;48.40;;;;;;5087685;28;19956;-69
2022/09/30 14:29:33;;;;;;;;;;;21.10;48.40;;;;;;5071656;28;19972;-68
2022/09/30 14:32:01;;;;;;;;;;;21.10;48.40;;;;;;5087821;28;20007;-71